金門航空站 - ATIS

METAR RCBS 040300Z 03009KT 350V070 6000 FEW006 BKN015 BKN050 18/14 Q1022 NOSIG RMK A3019(X)=

站台狀態:Offline
最後更新:2020-04-04 11:00:02